Schedule Details


Flight Number: CTN366
Departure: Franjo Tudman (LDZA) at 22:10
Arrival: Alexander The Great (LWSK) at 23:25
Route: TEBLI UL187 IDASI UM867 KOGAT Y550 BUREK P92 SKJ

Weather Information
LDZA 290230Z 10003KT 090V170 9999 FEW010 01/00 Q1009 NOSIG
LWSK 290230Z 00000KT 0200 R34/0350U FG BKN003 01/01 Q1010 NOSIG
Schedule Frequency

Route Map